sensor_id;sensor_type;location;lat;lon;timestamp;pressure;altitude;pressure_sealevel;temperature;humidity
20145;BME280;10233;50.814;6.590;2022-08-19T00:00:14;99944.44;;;19.67;100.00
20145;BME280;10233;50.814;6.590;2022-08-19T00:01:16;99948.75;;;19.68;100.00
20145;BME280;10233;50.814;6.590;2022-08-19T00:02:16;99944.44;;;19.67;100.00
20145;BME280;10233;50.814;6.590;2022-08-19T00:03:17;99951.16;;;19.70;100.00
20145;BME280;10233;50.814;6.590;2022-08-19T00:04:20;99950.63;;;19.68;100.00
20145;BME280;10233;50.814;6.590;2022-08-19T00:05:22;99946.56;;;19.60;100.00
20145;BME280;10233;50.814;6.590;2022-08-19T00:06:22;99952.50;;;19.62;100.00
20145;BME280;10233;50.814;6.590;2022-08-19T00:07:23;99957.66;;;19.69;100.00
20145;BME280;10233;50.814;6.590;2022-08-19T00:08:23;99953.03;;;19.69;100.00
20145;BME280;10233;50.814;6.590;2022-08-19T00:09:25;99953.59;;;19.66;100.00
20145;BME280;10233;50.814;6.590;2022-08-19T00:10:25;99953.03;;;19.69;100.00
20145;BME280;10233;50.814;6.590;2022-08-19T00:11:27;99947.13;;;19.72;100.00
20145;BME280;10233;50.814;6.590;2022-08-19T00:12:27;99947.38;;;19.66;100.00
20145;BME280;10233;50.814;6.590;2022-08-19T00:13:28;99947.13;;;19.72;100.00
20145;BME280;10233;50.814;6.590;2022-08-19T00:14:29;99950.34;;;19.64;100.00
20145;BME280;10233;50.814;6.590;2022-08-19T00:15:34;99949.25;;;19.65;100.00
20145;BME280;10233;50.814;6.590;2022-08-19T00:16:35;99949.81;;;19.67;100.00
20145;BME280;10233;50.814;6.590;2022-08-19T00:17:36;99943.06;;;19.60;100.00
20145;BME280;10233;50.814;6.590;2022-08-19T00:18:36;99950.63;;;19.68;100.00
20145;BME280;10233;50.814;6.590;2022-08-19T00:19:38;99948.72;;;19.63;100.00
20145;BME280;10233;50.814;6.590;2022-08-19T00:20:38;99948.72;;;19.63;100.00
20145;BME280;10233;50.814;6.590;2022-08-19T00:21:40;99950.91;;;19.61;100.00
20145;BME280;10233;50.814;6.590;2022-08-19T00:22:41;99946.84;;;19.59;100.00
20145;BME280;10233;50.814;6.590;2022-08-19T00:23:42;99955.19;;;19.57;100.00
20145;BME280;10233;50.814;6.590;2022-08-19T00:24:45;99956.28;;;19.56;100.00
20145;BME280;10233;50.814;6.590;2022-08-19T00:25:47;99952.50;;;19.62;100.00
20145;BME280;10233;50.814;6.590;2022-08-19T00:26:47;99955.19;;;19.57;100.00
20145;BME280;10233;50.814;6.590;2022-08-19T00:27:48;99958.44;;;19.64;100.00
20145;BME280;10233;50.814;6.590;2022-08-19T00:28:48;99952.78;;;19.66;100.00
20145;BME280;10233;50.814;6.590;2022-08-19T00:29:49;99956.56;;;19.65;100.00
20145;BME280;10233;50.814;6.590;2022-08-19T00:30:49;99952.78;;;19.71;100.00
20145;BME280;10233;50.814;6.590;2022-08-19T00:31:52;99957.34;;;19.65;100.00
20145;BME280;10233;50.814;6.590;2022-08-19T00:32:57;99951.69;;;19.72;100.00
20145;BME280;10233;50.814;6.590;2022-08-19T00:33:58;99951.69;;;19.62;100.00
20145;BME280;10233;50.814;6.590;2022-08-19T00:34:59;99956.81;;;19.53;100.00
20145;BME280;10233;50.814;6.590;2022-08-19T00:36:02;99949.25;;;19.55;100.00
20145;BME280;10233;50.814;6.590;2022-08-19T00:37:04;99950.31;;;19.49;100.00
20145;BME280;10233;50.814;6.590;2022-08-19T00:38:05;99948.19;;;19.56;100.00
20145;BME280;10233;50.814;6.590;2022-08-19T00:39:06;99956.56;;;19.55;100.00
20145;BME280;10233;50.814;6.590;2022-08-19T00:40:07;99949.00;;;19.57;100.00
20145;BME280;10233;50.814;6.590;2022-08-19T00:41:10;99945.50;;;19.61;100.00
20145;BME280;10233;50.814;6.590;2022-08-19T00:42:10;99941.72;;;19.57;100.00
20145;BME280;10233;50.814;6.590;2022-08-19T00:43:13;99939.53;;;19.54;100.00
20145;BME280;10233;50.814;6.590;2022-08-19T00:44:24;99940.63;;;19.53;100.00
20145;BME280;10233;50.814;6.590;2022-08-19T00:45:27;99937.41;;;19.56;100.00
20145;BME280;10233;50.814;6.590;2022-08-19T00:46:33;99939.03;;;19.57;100.00
20145;BME280;10233;50.814;6.590;2022-08-19T00:47:36;99939.53;;;19.54;100.00
20145;BME280;10233;50.814;6.590;2022-08-19T00:48:36;99943.31;;;19.53;100.00
20145;BME280;10233;50.814;6.590;2022-08-19T00:49:56;99939.53;;;19.54;100.00
20145;BME280;10233;50.814;6.590;2022-08-19T00:50:58;99944.13;;;19.49;100.00
20145;BME280;10233;50.814;6.590;2022-08-19T00:52:06;99945.50;;;19.51;100.00
20145;BME280;10233;50.814;6.590;2022-08-19T00:53:07;99945.19;;;19.53;100.00
20145;BME280;10233;50.814;6.590;2022-08-19T00:54:08;99944.69;;;19.56;100.00
20145;BME280;10233;50.814;6.590;2022-08-19T00:55:09;99942.25;;;19.59;100.00
20145;BME280;10233;50.814;6.590;2022-08-19T00:56:11;99948.19;;;19.61;100.00
20145;BME280;10233;50.814;6.590;2022-08-19T00:57:15;99943.06;;;19.55;100.00
20145;BME280;10233;50.814;6.590;2022-08-19T00:58:20;99939.00;;;19.52;100.00
20145;BME280;10233;50.814;6.590;2022-08-19T00:59:21;99942.50;;;19.53;100.00
20145;BME280;10233;50.814;6.590;2022-08-19T01:00:24;99940.34;;;19.50;100.00
20145;BME280;10233;50.814;6.590;2022-08-19T01:01:28;99941.44;;;19.49;100.00
20145;BME280;10233;50.814;6.590;2022-08-19T01:02:30;99940.63;;;19.53;100.00
20145;BME280;10233;50.814;6.590;2022-08-19T01:03:31;99940.63;;;19.53;100.00
20145;BME280;10233;50.814;6.590;2022-08-19T01:04:31;99938.19;;;19.57;100.00
20145;BME280;10233;50.814;6.590;2022-08-19T01:05:33;99941.97;;;19.51;100.00
20145;BME280;10233;50.814;6.590;2022-08-19T01:06:37;99941.97;;;19.46;100.00
20145;BME280;10233;50.814;6.590;2022-08-19T01:07:39;99935.47;;;19.47;100.00
20145;BME280;10233;50.814;6.590;2022-08-19T01:08:40;99950.31;;;19.44;100.00
20145;BME280;10233;50.814;6.590;2022-08-19T01:09:41;99944.63;;;19.36;100.00
20145;BME280;10233;50.814;6.590;2022-08-19T01:10:50;99947.34;;;19.41;100.00
20145;BME280;10233;50.814;6.590;2022-08-19T01:11:52;99948.16;;;19.36;100.00
20145;BME280;10233;50.814;6.590;2022-08-19T01:12:55;99950.03;;;19.41;100.00
20145;BME280;10233;50.814;6.590;2022-08-19T01:13:56;99943.81;;;19.40;100.00
20145;BME280;10233;50.814;6.590;2022-08-19T01:14:57;99941.94;;;19.41;100.00
20145;BME280;10233;50.814;6.590;2022-08-19T01:16:06;99945.44;;;19.31;100.00
20145;BME280;10233;50.814;6.590;2022-08-19T01:17:11;99939.22;;;19.31;100.00
20145;BME280;10233;50.814;6.590;2022-08-19T01:18:14;99941.09;;;19.30;100.00
20145;BME280;10233;50.814;6.590;2022-08-19T01:19:26;99940.00;;;19.26;100.00
20145;BME280;10233;50.814;6.590;2022-08-19T01:20:28;99929.78;;;19.28;100.00
20145;BME280;10233;50.814;6.590;2022-08-19T01:21:40;99934.63;;;19.26;100.00
20145;BME280;10233;50.814;6.590;2022-08-19T01:22:57;99936.75;;;19.19;100.00
20145;BME280;10233;50.814;6.590;2022-08-19T01:23:58;99935.66;;;19.15;100.00
20145;BME280;10233;50.814;6.590;2022-08-19T01:24:59;99935.69;;;19.25;100.00
20145;BME280;10233;50.814;6.590;2022-08-19T01:26:00;99938.94;;;19.22;100.00
20145;BME280;10233;50.814;6.590;2022-08-19T01:27:04;99935.69;;;19.25;100.00
20145;BME280;10233;50.814;6.590;2022-08-19T01:28:04;99936.78;;;19.29;100.00
20145;BME280;10233;50.814;6.590;2022-08-19T01:29:06;99936.78;;;19.24;100.00
20145;BME280;10233;50.814;6.590;2022-08-19T01:30:11;99933.03;;;19.30;100.00
20145;BME280;10233;50.814;6.590;2022-08-19T01:31:22;99930.88;;;19.27;100.00
20145;BME280;10233;50.814;6.590;2022-08-19T01:32:23;99930.31;;;19.25;100.00
20145;BME280;10233;50.814;6.590;2022-08-19T01:33:23;99937.25;;;19.16;100.00
20145;BME280;10233;50.814;6.590;2022-08-19T01:34:23;99930.53;;;19.19;100.00
20145;BME280;10233;50.814;6.590;2022-08-19T01:35:26;99938.13;;;19.22;100.00
20145;BME280;10233;50.814;6.590;2022-08-19T01:36:35;99934.56;;;19.21;100.00
20145;BME280;10233;50.814;6.590;2022-08-19T01:37:44;99932.72;;;19.22;100.00
20145;BME280;10233;50.814;6.590;2022-08-19T01:38:45;99933.50;;;19.17;100.00
20145;BME280;10233;50.814;6.590;2022-08-19T01:39:46;99934.03;;;19.19;100.00
20145;BME280;10233;50.814;6.590;2022-08-19T01:40:47;99934.56;;;19.16;100.00
20145;BME280;10233;50.814;6.590;2022-08-19T01:41:47;99935.13;;;19.18;100.00
20145;BME280;10233;50.814;6.590;2022-08-19T01:42:49;99929.16;;;19.11;100.00
20145;BME280;10233;50.814;6.590;2022-08-19T01:43:51;99929.97;;;19.07;100.00
20145;BME280;10233;50.814;6.590;2022-08-19T01:44:52;99924.84;;;19.05;100.00
20145;BME280;10233;50.814;6.590;2022-08-19T01:45:52;99925.91;;;19.04;100.00
20145;BME280;10233;50.814;6.590;2022-08-19T01:46:53;99927.50;;;19.00;100.00
20145;BME280;10233;50.814;6.590;2022-08-19T01:47:54;99929.66;;;18.98;100.00
20145;BME280;10233;50.814;6.590;2022-08-19T01:48:56;99925.91;;;18.99;100.00
20145;BME280;10233;50.814;6.590;2022-08-19T01:49:58;99923.69;;;18.91;100.00
20145;BME280;10233;50.814;6.590;2022-08-19T01:50:58;99925.59;;;18.91;100.00
20145;BME280;10233;50.814;6.590;2022-08-19T01:52:00;99923.44;;;18.88;100.00
20145;BME280;10233;50.814;6.590;2022-08-19T01:53:03;99915.59;;;18.86;100.00
20145;BME280;10233;50.814;6.590;2022-08-19T01:54:04;99917.78;;;18.89;100.00
20145;BME280;10233;50.814;6.590;2022-08-19T01:55:07;99916.44;;;18.92;100.00
20145;BME280;10233;50.814;6.590;2022-08-19T01:56:08;99914.84;;;18.96;100.00
20145;BME280;10233;50.814;6.590;2022-08-19T01:57:12;99902.69;;;18.93;100.00
20145;BME280;10233;50.814;6.590;2022-08-19T01:58:18;99908.88;;;18.89;100.00
20145;BME280;10233;50.814;6.590;2022-08-19T01:59:22;99901.03;;;18.87;100.00
20145;BME280;10233;50.814;6.590;2022-08-19T02:00:28;99907.50;;;18.86;100.00
20145;BME280;10233;50.814;6.590;2022-08-19T02:01:30;99909.13;;;18.87;100.00
20145;BME280;10233;50.814;6.590;2022-08-19T02:02:32;99907.50;;;18.86;100.00
20145;BME280;10233;50.814;6.590;2022-08-19T02:03:33;99913.47;;;18.88;100.00
20145;BME280;10233;50.814;6.590;2022-08-19T02:04:35;99911.03;;;18.87;100.00
20145;BME280;10233;50.814;6.590;2022-08-19T02:05:39;99915.88;;;18.90;100.00
20145;BME280;10233;50.814;6.590;2022-08-19T02:06:40;99918.03;;;18.88;100.00
20145;BME280;10233;50.814;6.590;2022-08-19T02:07:40;99916.69;;;18.90;100.00
20145;BME280;10233;50.814;6.590;2022-08-19T02:08:41;99915.88;;;18.90;100.00
20145;BME280;10233;50.814;6.590;2022-08-19T02:09:42;99915.34;;;18.93;100.00
20145;BME280;10233;50.814;6.590;2022-08-19T02:10:43;99917.78;;;18.94;100.00
20145;BME280;10233;50.814;6.590;2022-08-19T02:11:43;99916.22;;;19.03;100.00
20145;BME280;10233;50.814;6.590;2022-08-19T02:12:44;99910.53;;;19.00;100.00
20145;BME280;10233;50.814;6.590;2022-08-19T02:13:44;99908.88;;;18.89;100.00
20145;BME280;10233;50.814;6.590;2022-08-19T02:14:45;99912.91;;;18.86;100.00
20145;BME280;10233;50.814;6.590;2022-08-19T02:15:47;99915.63;;;18.91;100.00
20145;BME280;10233;50.814;6.590;2022-08-19T02:16:47;99909.41;;;18.86;100.00
20145;BME280;10233;50.814;6.590;2022-08-19T02:17:48;99908.59;;;18.85;100.00
20145;BME280;10233;50.814;6.590;2022-08-19T02:18:48;99916.66;;;18.80;100.00
20145;BME280;10233;50.814;6.590;2022-08-19T02:19:49;99906.97;;;18.84;100.00
20145;BME280;10233;50.814;6.590;2022-08-19T02:20:50;99909.69;;;18.89;100.00
20145;BME280;10233;50.814;6.590;2022-08-19T02:21:50;99904.03;;;18.86;100.00
20145;BME280;10233;50.814;6.590;2022-08-19T02:22:51;99907.78;;;18.85;100.00
20145;BME280;10233;50.814;6.590;2022-08-19T02:23:52;99912.91;;;18.86;100.00
20145;BME280;10233;50.814;6.590;2022-08-19T02:24:54;99913.16;;;18.85;100.00
20145;BME280;10233;50.814;6.590;2022-08-19T02:25:55;99911.03;;;18.87;100.00
20145;BME280;10233;50.814;6.590;2022-08-19T02:26:56;99915.59;;;18.86;100.00
20145;BME280;10233;50.814;6.590;2022-08-19T02:27:57;99911.03;;;18.87;100.00
20145;BME280;10233;50.814;6.590;2022-08-19T02:28:58;99913.16;;;18.85;100.00
20145;BME280;10233;50.814;6.590;2022-08-19T02:30:00;99915.09;;;18.89;100.00
20145;BME280;10233;50.814;6.590;2022-08-19T02:31:01;99912.13;;;18.86;100.00
20145;BME280;10233;50.814;6.590;2022-08-19T02:32:02;99916.41;;;18.87;100.00
20145;BME280;10233;50.814;6.590;2022-08-19T02:33:04;99916.41;;;18.82;100.00
20145;BME280;10233;50.814;6.590;2022-08-19T02:34:05;99914.25;;;18.84;100.00
20145;BME280;10233;50.814;6.590;2022-08-19T02:35:06;99917.16;;;18.77;100.00
20145;BME280;10233;50.814;6.590;2022-08-19T02:36:08;99921.25;;;18.85;100.00
20145;BME280;10233;50.814;6.590;2022-08-19T02:37:09;99919.09;;;18.82;100.00
20145;BME280;10233;50.814;6.590;2022-08-19T02:38:32;99917.47;;;18.76;100.00
20145;BME280;10233;50.814;6.590;2022-08-19T02:39:32;99920.94;;;18.76;100.00
20145;BME280;10233;50.814;6.590;2022-08-19T02:40:33;99922.53;;;18.72;100.00
20145;BME280;10233;50.814;6.590;2022-08-19T02:41:34;99926.88;;;18.73;100.00
20145;BME280;10233;50.814;6.590;2022-08-19T02:42:34;99924.94;;;18.69;100.00
20145;BME280;10233;50.814;6.590;2022-08-19T02:43:35;99926.56;;;18.70;100.00
20145;BME280;10233;50.814;6.590;2022-08-19T02:44:40;99931.69;;;18.71;100.00
20145;BME280;10233;50.814;6.590;2022-08-19T02:45:40;99927.13;;;18.67;100.00
20145;BME280;10233;50.814;6.590;2022-08-19T02:46:41;99928.72;;;18.68;100.00
20145;BME280;10233;50.814;6.590;2022-08-19T02:47:42;99929.56;;;18.68;100.00
20145;BME280;10233;50.814;6.590;2022-08-19T02:48:43;99934.91;;;18.63;100.00
20145;BME280;10233;50.814;6.590;2022-08-19T02:49:44;99930.56;;;18.62;100.00
20145;BME280;10233;50.814;6.590;2022-08-19T02:50:46;99938.66;;;18.62;100.00
20145;BME280;10233;50.814;6.590;2022-08-19T02:51:46;99937.03;;;18.61;100.00
20145;BME280;10233;50.814;6.590;2022-08-19T02:52:47;99935.69;;;18.59;100.00
20145;BME280;10233;50.814;6.590;2022-08-19T02:53:47;99932.44;;;18.57;100.00
20145;BME280;10233;50.814;6.590;2022-08-19T02:54:48;99932.69;;;18.55;100.00
20145;BME280;10233;50.814;6.590;2022-08-19T02:55:49;99939.72;;;18.56;100.00
20145;BME280;10233;50.814;6.590;2022-08-19T02:56:50;99937.56;;;18.53;100.00
20145;BME280;10233;50.814;6.590;2022-08-19T02:57:51;99938.06;;;18.50;100.00
20145;BME280;10233;50.814;6.590;2022-08-19T02:58:52;99946.41;;;18.49;100.00
20145;BME280;10233;50.814;6.590;2022-08-19T02:59:53;99939.41;;;18.48;100.00
20145;BME280;10233;50.814;6.590;2022-08-19T03:00:55;99946.63;;;18.42;100.00
20145;BME280;10233;50.814;6.590;2022-08-19T03:01:56;99944.72;;;18.38;100.00
20145;BME280;10233;50.814;6.590;2022-08-19T03:02:57;99941.47;;;18.36;100.00
20145;BME280;10233;50.814;6.590;2022-08-19T03:03:59;99939.53;;;18.31;100.00
20145;BME280;10233;50.814;6.590;2022-08-19T03:05:02;99940.66;;;18.35;100.00
20145;BME280;10233;50.814;6.590;2022-08-19T03:06:14;99930.63;;;18.31;100.00
20145;BME280;10233;50.814;6.590;2022-08-19T03:07:16;99932.03;;;18.33;100.00
20145;BME280;10233;50.814;6.590;2022-08-19T03:08:18;99940.91;;;18.34;100.00
20145;BME280;10233;50.814;6.590;2022-08-19T03:09:19;99931.50;;;18.36;100.00
20145;BME280;10233;50.814;6.590;2022-08-19T03:10:20;99928.22;;;18.29;100.00
20145;BME280;10233;50.814;6.590;2022-08-19T03:11:27;99938.22;;;18.34;100.00
20145;BME280;10233;50.814;6.590;2022-08-19T03:12:28;99934.78;;;18.43;100.00
20145;BME280;10233;50.814;6.590;2022-08-19T03:13:28;99932.34;;;18.37;100.00
20145;BME280;10233;50.814;6.590;2022-08-19T03:14:33;99929.09;;;18.40;100.00
20145;BME280;10233;50.814;6.590;2022-08-19T03:15:34;99928.56;;;18.38;100.00
20145;BME280;10233;50.814;6.590;2022-08-19T03:16:47;99937.19;;;18.40;100.00
20145;BME280;10233;50.814;6.590;2022-08-19T03:17:48;99934.75;;;18.38;100.00
20145;BME280;10233;50.814;6.590;2022-08-19T03:18:49;99932.38;;;18.42;100.00
20145;BME280;10233;50.814;6.590;2022-08-19T03:19:50;99926.63;;;18.33;100.00
20145;BME280;10233;50.814;6.590;2022-08-19T03:20:52;99933.38;;;18.36;100.00
20145;BME280;10233;50.814;6.590;2022-08-19T03:21:56;99929.94;;;18.40;100.00
20145;BME280;10233;50.814;6.590;2022-08-19T03:22:56;99929.34;;;18.33;100.00
20145;BME280;10233;50.814;6.590;2022-08-19T03:24:00;99932.06;;;18.38;100.00
20145;BME280;10233;50.814;6.590;2022-08-19T03:25:00;99938.78;;;18.36;100.00
20145;BME280;10233;50.814;6.590;2022-08-19T03:26:05;99935.78;;;18.32;100.00
20145;BME280;10233;50.814;6.590;2022-08-19T03:27:06;99936.63;;;18.33;100.00
20145;BME280;10233;50.814;6.590;2022-08-19T03:28:06;99926.88;;;18.32;100.00
20145;BME280;10233;50.814;6.590;2022-08-19T03:29:07;99934.72;;;18.33;100.00
20145;BME280;10233;50.814;6.590;2022-08-19T03:30:10;99930.69;;;18.36;100.00
20145;BME280;10233;50.814;6.590;2022-08-19T03:31:12;99942.53;;;18.35;100.00
20145;BME280;10233;50.814;6.590;2022-08-19T03:32:13;99936.91;;;18.36;100.00
20145;BME280;10233;50.814;6.590;2022-08-19T03:33:13;99931.50;;;18.36;100.00
20145;BME280;10233;50.814;6.590;2022-08-19T03:34:20;99936.41;;;18.39;100.00
20145;BME280;10233;50.814;6.590;2022-08-19T03:35:27;99930.19;;;18.39;100.00
20145;BME280;10233;50.814;6.590;2022-08-19T03:36:28;99937.47;;;18.43;100.00
20145;BME280;10233;50.814;6.590;2022-08-19T03:37:28;99939.63;;;18.41;100.00
20145;BME280;10233;50.814;6.590;2022-08-19T03:38:29;99935.59;;;18.44;100.00
20145;BME280;10233;50.814;6.590;2022-08-19T03:39:29;99945.56;;;18.48;100.00
20145;BME280;10233;50.814;6.590;2022-08-19T03:40:30;99939.66;;;18.46;100.00
20145;BME280;10233;50.814;6.590;2022-08-19T03:41:39;99949.13;;;18.54;100.00
20145;BME280;10233;50.814;6.590;2022-08-19T03:42:39;99940.75;;;18.50;100.00
20145;BME280;10233;50.814;6.590;2022-08-19T03:43:42;99940.53;;;18.57;100.00
20145;BME280;10233;50.814;6.590;2022-08-19T03:44:44;99947.78;;;18.56;100.00
20145;BME280;10233;50.814;6.590;2022-08-19T03:45:45;99938.63;;;18.57;100.00
20145;BME280;10233;50.814;6.590;2022-08-19T03:46:48;99942.69;;;18.60;100.00
20145;BME280;10233;50.814;6.590;2022-08-19T03:47:49;99941.56;;;18.51;100.00
20145;BME280;10233;50.814;6.590;2022-08-19T03:48:51;99937.00;;;18.56;100.00
20145;BME280;10233;50.814;6.590;2022-08-19T03:49:54;99945.66;;;18.58;100.00
20145;BME280;10233;50.814;6.590;2022-08-19T03:50:54;99943.75;;;18.59;100.00
20145;BME280;10233;50.814;6.590;2022-08-19T03:51:56;99940.75;;;18.50;100.00
20145;BME280;10233;50.814;6.590;2022-08-19T03:52:57;99941.88;;;18.54;100.00
20145;BME280;10233;50.814;6.590;2022-08-19T03:54:00;99950.47;;;18.56;100.00
20145;BME280;10233;50.814;6.590;2022-08-19T03:55:02;99951.03;;;18.58;100.00
20145;BME280;10233;50.814;6.590;2022-08-19T03:56:03;99949.94;;;18.54;100.00
20145;BME280;10233;50.814;6.590;2022-08-19T03:57:04;99945.88;;;18.52;100.00
20145;BME280;10233;50.814;6.590;2022-08-19T03:58:04;99954.22;;;18.50;100.00
20145;BME280;10233;50.814;6.590;2022-08-19T03:59:13;99958.50;;;18.46;100.00
20145;BME280;10233;50.814;6.590;2022-08-19T04:00:14;99952.56;;;18.44;100.00
20145;BME280;10233;50.814;6.590;2022-08-19T04:01:18;99957.97;;;18.44;100.00
20145;BME280;10233;50.814;6.590;2022-08-19T04:02:18;99962.84;;;18.52;100.00
20145;BME280;10233;50.814;6.590;2022-08-19T04:03:19;99956.41;;;18.53;100.00
20145;BME280;10233;50.814;6.590;2022-08-19T04:04:20;99961.25;;;18.56;100.00
20145;BME280;10233;50.814;6.590;2022-08-19T04:05:21;99960.22;;;18.67;100.00
20145;BME280;10233;50.814;6.590;2022-08-19T04:06:24;99955.94;;;18.71;100.00
20145;BME280;10233;50.814;6.590;2022-08-19T04:07:26;99963.00;;;18.82;100.00
20145;BME280;10233;50.814;6.590;2022-08-19T04:08:26;99960.31;;;18.87;100.00
20145;BME280;10233;50.814;6.590;2022-08-19T04:09:27;99964.97;;;18.97;100.00
20145;BME280;10233;50.814;6.590;2022-08-19T04:10:27;99969.56;;;19.01;100.00
20145;BME280;10233;50.814;6.590;2022-08-19T04:11:33;99969.03;;;18.99;100.00
20145;BME280;10233;50.814;6.590;2022-08-19T04:12:34;99969.84;;;19.00;100.00
20145;BME280;10233;50.814;6.590;2022-08-19T04:13:34;99974.94;;;18.96;100.00
20145;BME280;10233;50.814;6.590;2022-08-19T04:14:35;99967.91;;;18.95;100.00
20145;BME280;10233;50.814;6.590;2022-08-19T04:15:40;99969.50;;;18.91;100.00
20145;BME280;10233;50.814;6.590;2022-08-19T04:16:43;99971.91;;;18.83;100.00
20145;BME280;10233;50.814;6.590;2022-08-19T04:17:44;99972.69;;;18.78;100.00
20145;BME280;10233;50.814;6.590;2022-08-19T04:18:46;99975.13;;;18.80;100.00
20145;BME280;10233;50.814;6.590;2022-08-19T04:19:46;99978.91;;;18.84;100.00
20145;BME280;10233;50.814;6.590;2022-08-19T04:20:47;99980.78;;;18.78;100.00
20145;BME280;10233;50.814;6.590;2022-08-19T04:21:50;99975.09;;;18.75;100.00
20145;BME280;10233;50.814;6.590;2022-08-19T04:22:51;99978.31;;;18.72;100.00
20145;BME280;10233;50.814;6.590;2022-08-19T04:23:52;99982.84;;;18.66;100.00
20145;BME280;10233;50.814;6.590;2022-08-19T04:24:53;99976.91;;;18.59;100.00
20145;BME280;10233;50.814;6.590;2022-08-19T04:25:54;99983.66;;;18.62;100.00
20145;BME280;10233;50.814;6.590;2022-08-19T04:26:54;99976.88;;;18.54;100.00
20145;BME280;10233;50.814;6.590;2022-08-19T04:27:56;99979.53;;;18.49;100.00
20145;BME280;10233;50.814;6.590;2022-08-19T04:28:56;99977.91;;;18.48;100.00
20145;BME280;10233;50.814;6.590;2022-08-19T04:29:56;99986.50;;;18.45;100.00
20145;BME280;10233;50.814;6.590;2022-08-19T04:30:57;99982.19;;;18.44;100.00
20145;BME280;10233;50.814;6.590;2022-08-19T04:31:58;99987.00;;;18.42;100.00
20145;BME280;10233;50.814;6.590;2022-08-19T04:32:59;99985.16;;;18.43;100.00
20145;BME280;10233;50.814;6.590;2022-08-19T04:34:00;99983.00;;;18.45;100.00
20145;BME280;10233;50.814;6.590;2022-08-19T04:35:02;99987.03;;;18.47;100.00
20145;BME280;10233;50.814;6.590;2022-08-19T04:36:03;99992.72;;;18.51;100.00
20145;BME280;10233;50.814;6.590;2022-08-19T04:37:05;99987.59;;;18.44;100.00
20145;BME280;10233;50.814;6.590;2022-08-19T04:38:14;99989.97;;;18.41;100.00
20145;BME280;10233;50.814;6.590;2022-08-19T04:39:17;99986.22;;;18.42;100.00
20145;BME280;10233;50.814;6.590;2022-08-19T04:40:18;99996.16;;;18.41;100.00
20145;BME280;10233;50.814;6.590;2022-08-19T04:41:38;99994.56;;;18.40;100.00
20145;BME280;10233;50.814;6.590;2022-08-19T04:42:57;99993.47;;;18.41;100.00
20145;BME280;10233;50.814;6.590;2022-08-19T04:43:57;99994.56;;;18.40;100.00
20145;BME280;10233;50.814;6.590;2022-08-19T04:44:58;99995.09;;;18.42;100.00
20145;BME280;10233;50.814;6.590;2022-08-19T04:46:10;99989.19;;;18.45;100.00
20145;BME280;10233;50.814;6.590;2022-08-19T04:47:11;99991.63;;;18.47;100.00
20145;BME280;10233;50.814;6.590;2022-08-19T04:48:12;99996.47;;;18.45;100.00
20145;BME280;10233;50.814;6.590;2022-08-19T04:49:13;99993.53;;;18.51;100.00
20145;BME280;10233;50.814;6.590;2022-08-19T04:50:14;99997.28;;;18.45;100.00
20145;BME280;10233;50.814;6.590;2022-08-19T04:51:19;99998.81;;;18.36;100.00
20145;BME280;10233;50.814;6.590;2022-08-19T04:52:20;99999.91;;;18.35;100.00
20145;BME280;10233;50.814;6.590;2022-08-19T04:53:21;100006.38;;;18.34;100.00
20145;BME280;10233;50.814;6.590;2022-08-19T04:54:24;100002.84;;;18.34;100.00
20145;BME280;10233;50.814;6.590;2022-08-19T04:55:25;100000.91;;;18.29;100.00
20145;BME280;10233;50.814;6.590;2022-08-19T04:56:26;100013.50;;;18.24;100.00
20145;BME280;10233;50.814;6.590;2022-08-19T04:57:26;100006.75;;;18.21;100.00
20145;BME280;10233;50.814;6.590;2022-08-19T04:58:27;100014.25;;;18.14;100.00
20145;BME280;10233;50.814;6.590;2022-08-19T04:59:27;100013.19;;;18.15;100.00
20145;BME280;10233;50.814;6.590;2022-08-19T05:00:28;100014.28;;;18.19;100.00
20145;BME280;10233;50.814;6.590;2022-08-19T05:01:30;100019.19;;;18.27;100.00
20145;BME280;10233;50.814;6.590;2022-08-19T05:02:32;100021.38;;;18.30;100.00
20145;BME280;10233;50.814;6.590;2022-08-19T05:03:32;100028.44;;;18.36;100.00
20145;BME280;10233;50.814;6.590;2022-08-19T05:04:33;100025.22;;;18.34;100.00
20145;BME280;10233;50.814;6.590;2022-08-19T05:05:39;100026.25;;;18.33;100.00
20145;BME280;10233;50.814;6.590;2022-08-19T05:06:40;100024.13;;;18.35;100.00
20145;BME280;10233;50.814;6.590;2022-08-19T05:07:41;100027.38;;;18.37;100.00
20145;BME280;10233;50.814;6.590;2022-08-19T05:08:42;100030.63;;;18.39;100.00
20145;BME280;10233;50.814;6.590;2022-08-19T05:09:43;100032.00;;;18.42;100.00
20145;BME280;10233;50.814;6.590;2022-08-19T05:10:43;100030.97;;;18.48;100.00
20145;BME280;10233;50.814;6.590;2022-08-19T05:11:44;100038.25;;;18.52;100.00
20145;BME280;10233;50.814;6.590;2022-08-19T05:12:45;100040.97;;;18.57;100.00
20145;BME280;10233;50.814;6.590;2022-08-19T05:13:46;100034.59;;;18.63;100.00
20145;BME280;10233;50.814;6.590;2022-08-19T05:14:51;100032.47;;;18.70;100.00
20145;BME280;10233;50.814;6.590;2022-08-19T05:15:57;100034.09;;;18.76;100.00
20145;BME280;10233;50.814;6.590;2022-08-19T05:16:57;100039.78;;;18.80;100.00
20145;BME280;10233;50.814;6.590;2022-08-19T05:17:58;100045.50;;;18.83;100.00
20145;BME280;10233;50.814;6.590;2022-08-19T05:19:17;100040.13;;;18.88;100.00
20145;BME280;10233;50.814;6.590;2022-08-19T05:20:39;100045.56;;;18.98;100.00
20145;BME280;10233;50.814;6.590;2022-08-19T05:21:59;100045.03;;;19.01;100.00
20145;BME280;10233;50.814;6.590;2022-08-19T05:23:19;100045.34;;;19.05;100.00
20145;BME280;10233;50.814;6.590;2022-08-19T05:24:20;100039.69;;;19.11;100.00
20145;BME280;10233;50.814;6.590;2022-08-19T05:25:22;100046.16;;;19.10;100.00